sensor_id;sensor_type;location;lat;lon;timestamp;pressure;altitude;pressure_sealevel;temperature;humidity
77023;BME280;65952;51.440;-2.054;2024-01-30T00:00:37;100637.53;;;13.04;66.37
77023;BME280;65952;51.440;-2.054;2024-01-30T00:03:03;100625.94;;;13.26;65.73
77023;BME280;65952;51.440;-2.054;2024-01-30T00:05:33;100625.25;;;13.32;65.31
77023;BME280;65952;51.440;-2.054;2024-01-30T00:07:59;100623.28;;;12.87;67.10
77023;BME280;65952;51.440;-2.054;2024-01-30T00:10:24;100624.84;;;12.73;67.85
77023;BME280;65952;51.440;-2.054;2024-01-30T00:12:50;100629.94;;;13.07;66.98
77023;BME280;65952;51.440;-2.054;2024-01-30T00:15:15;100631.66;;;13.00;67.07
77023;BME280;65952;51.440;-2.054;2024-01-30T00:17:41;100629.06;;;12.75;68.33
77023;BME280;65952;51.440;-2.054;2024-01-30T00:20:06;100627.53;;;12.33;69.81
77023;BME280;65952;51.440;-2.054;2024-01-30T00:22:34;100619.31;;;11.93;70.92
77023;BME280;65952;51.440;-2.054;2024-01-30T00:25:00;100584.34;;;12.01;71.07
77023;BME280;65952;51.440;-2.054;2024-01-30T00:27:26;100602.97;;;12.19;70.56
77023;BME280;65952;51.440;-2.054;2024-01-30T00:29:52;100601.69;;;11.99;71.29
77023;BME280;65952;51.440;-2.054;2024-01-30T00:32:17;100604.69;;;11.87;72.04
77023;BME280;65952;51.440;-2.054;2024-01-30T00:34:44;100621.16;;;11.93;71.65
77023;BME280;65952;51.440;-2.054;2024-01-30T00:37:09;100622.50;;;12.13;70.87
77023;BME280;65952;51.440;-2.054;2024-01-30T00:39:35;100620.66;;;12.14;70.71
77023;BME280;65952;51.440;-2.054;2024-01-30T00:42:00;100637.25;;;12.50;69.18
77023;BME280;65952;51.440;-2.054;2024-01-30T00:44:26;100622.53;;;12.61;69.37
77023;BME280;65952;51.440;-2.054;2024-01-30T00:46:51;100627.88;;;12.78;68.54
77023;BME280;65952;51.440;-2.054;2024-01-30T00:49:17;100633.75;;;12.33;70.15
77023;BME280;65952;51.440;-2.054;2024-01-30T00:51:42;100644.78;;;12.55;69.38
77023;BME280;65952;51.440;-2.054;2024-01-30T00:54:07;100643.31;;;12.44;69.41
77023;BME280;65952;51.440;-2.054;2024-01-30T00:56:33;100646.81;;;12.53;69.24
77023;BME280;65952;51.440;-2.054;2024-01-30T00:58:58;100637.25;;;12.50;69.45
77023;BME280;65952;51.440;-2.054;2024-01-30T01:01:24;100634.25;;;12.37;70.12
77023;BME280;65952;51.440;-2.054;2024-01-30T01:03:49;100631.91;;;12.17;70.75
77023;BME280;65952;51.440;-2.054;2024-01-30T01:06:15;100643.50;;;12.34;70.36
77023;BME280;65952;51.440;-2.054;2024-01-30T01:08:40;100639.56;;;12.54;69.62
77023;BME280;65952;51.440;-2.054;2024-01-30T01:11:05;100629.84;;;12.44;70.10
77023;BME280;65952;51.440;-2.054;2024-01-30T01:13:31;100628.03;;;12.37;70.20
77023;BME280;65952;51.440;-2.054;2024-01-30T01:15:56;100632.13;;;12.64;69.55
77023;BME280;65952;51.440;-2.054;2024-01-30T01:18:21;100626.59;;;12.65;68.79
77023;BME280;65952;51.440;-2.054;2024-01-30T01:20:47;100628.16;;;12.43;70.22
77023;BME280;65952;51.440;-2.054;2024-01-30T01:23:12;100623.41;;;12.62;69.13
77023;BME280;65952;51.440;-2.054;2024-01-30T01:25:38;100630.31;;;12.56;69.78
77023;BME280;65952;51.440;-2.054;2024-01-30T01:28:04;100639.56;;;12.62;69.59
77023;BME280;65952;51.440;-2.054;2024-01-30T01:30:29;100632.00;;;12.57;69.96
77023;BME280;65952;51.440;-2.054;2024-01-30T01:32:55;100642.97;;;12.47;70.61
77023;BME280;65952;51.440;-2.054;2024-01-30T01:35:24;100640.63;;;12.44;70.43
77023;BME280;65952;51.440;-2.054;2024-01-30T01:37:51;100639.44;;;12.39;70.62
77023;BME280;65952;51.440;-2.054;2024-01-30T01:40:28;100636.94;;;12.37;71.26
77023;BME280;65952;51.440;-2.054;2024-01-30T01:42:55;100637.88;;;12.61;70.22
77023;BME280;65952;51.440;-2.054;2024-01-30T01:45:21;100643.50;;;12.43;70.69
77023;BME280;65952;51.440;-2.054;2024-01-30T01:47:52;100636.50;;;12.65;69.83
77023;BME280;65952;51.440;-2.054;2024-01-30T01:50:20;100645.78;;;12.62;70.00
77023;BME280;65952;51.440;-2.054;2024-01-30T01:52:49;100646.34;;;12.49;69.77
77023;BME280;65952;51.440;-2.054;2024-01-30T01:55:16;100643.88;;;11.90;69.98
77023;BME280;65952;51.440;-2.054;2024-01-30T01:57:44;100651.44;;;11.70;69.94
77023;BME280;65952;51.440;-2.054;2024-01-30T02:00:10;100659.31;;;11.88;68.83
77023;BME280;65952;51.440;-2.054;2024-01-30T02:02:36;100667.59;;;12.03;67.86
77023;BME280;65952;51.440;-2.054;2024-01-30T02:05:02;100653.94;;;11.55;68.55
77023;BME280;65952;51.440;-2.054;2024-01-30T02:07:28;100664.88;;;11.86;67.55
77023;BME280;65952;51.440;-2.054;2024-01-30T02:09:54;100678.06;;;11.30;68.40
77023;BME280;65952;51.440;-2.054;2024-01-30T02:12:20;100676.09;;;10.98;69.49
77023;BME280;65952;51.440;-2.054;2024-01-30T02:14:46;100667.09;;;11.15;68.70
77023;BME280;65952;51.440;-2.054;2024-01-30T02:17:13;100674.38;;;11.31;68.21
77023;BME280;65952;51.440;-2.054;2024-01-30T02:19:39;100667.69;;;11.44;67.76
77023;BME280;65952;51.440;-2.054;2024-01-30T02:22:05;100676.84;;;11.08;68.48
77023;BME280;65952;51.440;-2.054;2024-01-30T02:24:30;100687.19;;;11.03;68.53
77023;BME280;65952;51.440;-2.054;2024-01-30T02:26:55;100691.44;;;11.14;68.58
77023;BME280;65952;51.440;-2.054;2024-01-30T02:29:21;100694.91;;;10.98;68.45
77023;BME280;65952;51.440;-2.054;2024-01-30T02:31:47;100708.38;;;10.71;69.36
77023;BME280;65952;51.440;-2.054;2024-01-30T02:34:22;100713.09;;;10.69;68.78
77023;BME280;65952;51.440;-2.054;2024-01-30T02:36:47;100715.13;;;10.76;68.83
77023;BME280;65952;51.440;-2.054;2024-01-30T02:39:19;100733.72;;;11.03;67.57
77023;BME280;65952;51.440;-2.054;2024-01-30T02:41:45;100722.13;;;10.68;68.13
77023;BME280;65952;51.440;-2.054;2024-01-30T02:44:10;100735.56;;;10.68;68.55
77023;BME280;65952;51.440;-2.054;2024-01-30T02:46:35;100744.75;;;10.92;68.03
77023;BME280;65952;51.440;-2.054;2024-01-30T02:49:01;100750.97;;;10.93;67.59
77023;BME280;65952;51.440;-2.054;2024-01-30T02:51:27;100752.78;;;11.18;66.53
77023;BME280;65952;51.440;-2.054;2024-01-30T02:53:52;100757.69;;;10.97;67.21
77023;BME280;65952;51.440;-2.054;2024-01-30T02:56:18;100758.56;;;10.97;67.10
77023;BME280;65952;51.440;-2.054;2024-01-30T02:58:43;100759.47;;;11.14;66.74
77023;BME280;65952;51.440;-2.054;2024-01-30T03:01:08;100770.66;;;10.75;67.71
77023;BME280;65952;51.440;-2.054;2024-01-30T03:03:34;100772.88;;;10.80;67.88
77023;BME280;65952;51.440;-2.054;2024-01-30T03:06:01;100774.84;;;10.96;67.09
77023;BME280;65952;51.440;-2.054;2024-01-30T03:08:27;100777.91;;;11.09;66.91
77023;BME280;65952;51.440;-2.054;2024-01-30T03:10:53;100783.94;;;11.03;66.85
77023;BME280;65952;51.440;-2.054;2024-01-30T03:13:18;100783.63;;;10.80;67.28
77023;BME280;65952;51.440;-2.054;2024-01-30T03:15:44;100779.69;;;10.66;67.44
77023;BME280;65952;51.440;-2.054;2024-01-30T03:18:09;100794.88;;;10.57;67.27
77023;BME280;65952;51.440;-2.054;2024-01-30T03:20:34;100804.13;;;10.81;66.42
77023;BME280;65952;51.440;-2.054;2024-01-30T03:23:00;100800.56;;;10.54;67.06
77023;BME280;65952;51.440;-2.054;2024-01-30T03:25:26;100810.56;;;10.88;66.22
77023;BME280;65952;51.440;-2.054;2024-01-30T03:27:51;100816.41;;;10.83;66.21
77023;BME280;65952;51.440;-2.054;2024-01-30T03:30:17;100817.47;;;10.91;65.75
77023;BME280;65952;51.440;-2.054;2024-01-30T03:32:42;100823.22;;;10.78;66.16
77023;BME280;65952;51.440;-2.054;2024-01-30T03:35:08;100822.03;;;10.72;66.30
77023;BME280;65952;51.440;-2.054;2024-01-30T03:37:34;100822.22;;;10.79;65.29
77023;BME280;65952;51.440;-2.054;2024-01-30T03:39:59;100834.41;;;10.91;65.58
77023;BME280;65952;51.440;-2.054;2024-01-30T03:42:24;100842.94;;;10.86;65.26
77023;BME280;65952;51.440;-2.054;2024-01-30T03:44:50;100848.78;;;10.64;65.29
77023;BME280;65952;51.440;-2.054;2024-01-30T03:47:19;100852.63;;;10.79;64.43
77023;BME280;65952;51.440;-2.054;2024-01-30T03:49:45;100863.88;;;10.83;64.54
77023;BME280;65952;51.440;-2.054;2024-01-30T03:52:10;100866.31;;;10.68;64.79
77023;BME280;65952;51.440;-2.054;2024-01-30T03:54:36;100869.50;;;10.71;64.29
77023;BME280;65952;51.440;-2.054;2024-01-30T03:57:01;100875.97;;;10.61;64.40
77023;BME280;65952;51.440;-2.054;2024-01-30T03:59:27;100887.38;;;10.81;63.68
77023;BME280;65952;51.440;-2.054;2024-01-30T04:01:52;100892.22;;;10.77;63.67
77023;BME280;65952;51.440;-2.054;2024-01-30T04:04:18;100886.16;;;10.57;63.87
77023;BME280;65952;51.440;-2.054;2024-01-30T04:06:44;100881.72;;;10.48;64.11
77023;BME280;65952;51.440;-2.054;2024-01-30T04:09:10;100885.94;;;10.68;63.53
77023;BME280;65952;51.440;-2.054;2024-01-30T04:11:36;100881.09;;;10.72;63.39
77023;BME280;65952;51.440;-2.054;2024-01-30T04:14:02;100882.53;;;10.84;63.08
77023;BME280;65952;51.440;-2.054;2024-01-30T04:16:27;100880.81;;;10.57;63.38
77023;BME280;65952;51.440;-2.054;2024-01-30T04:18:53;100883.53;;;10.83;62.93
77023;BME280;65952;51.440;-2.054;2024-01-30T04:21:20;100887.81;;;10.94;62.57
77023;BME280;65952;51.440;-2.054;2024-01-30T04:23:46;100889.97;;;10.91;62.65
77023;BME280;65952;51.440;-2.054;2024-01-30T04:26:12;100893.59;;;10.81;62.42
77023;BME280;65952;51.440;-2.054;2024-01-30T04:28:37;100900.13;;;10.79;62.36
77023;BME280;65952;51.440;-2.054;2024-01-30T04:31:03;100898.88;;;10.91;61.94
77023;BME280;65952;51.440;-2.054;2024-01-30T04:33:28;100910.06;;;11.04;61.58
77023;BME280;65952;51.440;-2.054;2024-01-30T04:35:53;100910.31;;;10.93;61.51
77023;BME280;65952;51.440;-2.054;2024-01-30T04:38:19;100911.06;;;10.85;61.56
77023;BME280;65952;51.440;-2.054;2024-01-30T04:40:44;100914.84;;;10.75;62.00
77023;BME280;65952;51.440;-2.054;2024-01-30T04:43:10;100919.47;;;10.64;62.16
77023;BME280;65952;51.440;-2.054;2024-01-30T04:45:35;100917.47;;;10.84;61.75
77023;BME280;65952;51.440;-2.054;2024-01-30T04:48:00;100934.88;;;10.62;62.39
77023;BME280;65952;51.440;-2.054;2024-01-30T04:50:26;100945.75;;;10.43;63.31
77023;BME280;65952;51.440;-2.054;2024-01-30T04:52:52;100942.63;;;10.65;62.50
77023;BME280;65952;51.440;-2.054;2024-01-30T04:55:17;100948.44;;;10.43;63.12
77023;BME280;65952;51.440;-2.054;2024-01-30T04:57:43;100961.25;;;10.49;62.89
77023;BME280;65952;51.440;-2.054;2024-01-30T05:00:08;100964.53;;;10.43;62.95
77023;BME280;65952;51.440;-2.054;2024-01-30T05:02:34;100975.16;;;10.44;63.17
77023;BME280;65952;51.440;-2.054;2024-01-30T05:05:00;100984.22;;;10.33;63.52
77023;BME280;65952;51.440;-2.054;2024-01-30T05:07:25;100974.31;;;10.62;62.58
77023;BME280;65952;51.440;-2.054;2024-01-30T05:09:51;100978.13;;;10.41;62.66
77023;BME280;65952;51.440;-2.054;2024-01-30T05:12:16;100975.91;;;10.27;63.35
77023;BME280;65952;51.440;-2.054;2024-01-30T05:14:42;100971.97;;;10.21;63.10
77023;BME280;65952;51.440;-2.054;2024-01-30T05:17:07;100987.03;;;10.42;62.74
77023;BME280;65952;51.440;-2.054;2024-01-30T05:19:35;100992.72;;;10.56;62.25
77023;BME280;65952;51.440;-2.054;2024-01-30T05:22:00;100997.25;;;10.56;62.32
77023;BME280;65952;51.440;-2.054;2024-01-30T05:24:26;101014.44;;;10.63;61.79
77023;BME280;65952;51.440;-2.054;2024-01-30T05:26:51;101012.13;;;10.50;62.33
77023;BME280;65952;51.440;-2.054;2024-01-30T05:29:17;101018.91;;;10.17;62.77
77023;BME280;65952;51.440;-2.054;2024-01-30T05:31:42;101016.81;;;10.11;63.07
77023;BME280;65952;51.440;-2.054;2024-01-30T05:34:07;101035.81;;;10.17;63.04
77023;BME280;65952;51.440;-2.054;2024-01-30T05:36:34;101031.69;;;10.33;62.69
77023;BME280;65952;51.440;-2.054;2024-01-30T05:38:59;101038.69;;;10.44;61.93
77023;BME280;65952;51.440;-2.054;2024-01-30T05:41:25;101038.88;;;10.42;61.70
77023;BME280;65952;51.440;-2.054;2024-01-30T05:43:53;101046.75;;;10.44;61.89
77023;BME280;65952;51.440;-2.054;2024-01-30T05:46:18;101053.13;;;10.70;61.24
77023;BME280;65952;51.440;-2.054;2024-01-30T05:48:44;101054.34;;;10.58;61.37
77023;BME280;65952;51.440;-2.054;2024-01-30T05:51:09;101069.97;;;10.25;62.17
77023;BME280;65952;51.440;-2.054;2024-01-30T05:53:34;101067.91;;;10.56;61.40
77023;BME280;65952;51.440;-2.054;2024-01-30T05:56:01;101071.50;;;10.65;61.07
77023;BME280;65952;51.440;-2.054;2024-01-30T05:58:27;101074.47;;;10.72;60.91
77023;BME280;65952;51.440;-2.054;2024-01-30T06:00:53;101082.19;;;10.75;61.07
77023;BME280;65952;51.440;-2.054;2024-01-30T06:03:18;101086.91;;;10.35;61.79
77023;BME280;65952;51.440;-2.054;2024-01-30T06:05:43;101091.88;;;10.30;62.12
77023;BME280;65952;51.440;-2.054;2024-01-30T06:08:09;101097.56;;;10.55;61.74
77023;BME280;65952;51.440;-2.054;2024-01-30T06:10:34;101107.31;;;10.56;61.76
77023;BME280;65952;51.440;-2.054;2024-01-30T06:13:00;101112.53;;;10.57;61.74
77023;BME280;65952;51.440;-2.054;2024-01-30T06:15:25;101126.97;;;10.56;61.69
77023;BME280;65952;51.440;-2.054;2024-01-30T06:17:51;101127.81;;;10.57;61.85
77023;BME280;65952;51.440;-2.054;2024-01-30T06:20:17;101123.94;;;10.69;61.36
77023;BME280;65952;51.440;-2.054;2024-01-30T06:22:43;101130.28;;;10.40;61.72
77023;BME280;65952;51.440;-2.054;2024-01-30T06:25:08;101138.56;;;10.57;61.59
77023;BME280;65952;51.440;-2.054;2024-01-30T06:27:34;101153.13;;;10.82;60.82
77023;BME280;65952;51.440;-2.054;2024-01-30T06:29:59;101153.44;;;10.79;60.73
77023;BME280;65952;51.440;-2.054;2024-01-30T06:32:25;101166.31;;;10.76;60.86
77023;BME280;65952;51.440;-2.054;2024-01-30T06:34:50;101157.81;;;10.80;60.72
77023;BME280;65952;51.440;-2.054;2024-01-30T06:37:15;101158.25;;;10.76;60.97
77023;BME280;65952;51.440;-2.054;2024-01-30T06:39:41;101164.63;;;10.75;61.25
77023;BME280;65952;51.440;-2.054;2024-01-30T06:42:06;101170.16;;;10.73;61.44
77023;BME280;65952;51.440;-2.054;2024-01-30T06:44:32;101172.78;;;10.83;60.73
77023;BME280;65952;51.440;-2.054;2024-01-30T06:46:57;101178.34;;;10.71;61.26
77023;BME280;65952;51.440;-2.054;2024-01-30T06:49:22;101183.28;;;10.76;61.08
77023;BME280;65952;51.440;-2.054;2024-01-30T06:51:48;101191.44;;;10.84;60.91
77023;BME280;65952;51.440;-2.054;2024-01-30T06:54:13;101183.81;;;10.80;60.59
77023;BME280;65952;51.440;-2.054;2024-01-30T06:56:39;101189.47;;;10.77;60.68
77023;BME280;65952;51.440;-2.054;2024-01-30T06:59:04;101193.13;;;10.85;60.58
77023;BME280;65952;51.440;-2.054;2024-01-30T07:01:30;101202.19;;;10.84;60.45
77023;BME280;65952;51.440;-2.054;2024-01-30T07:03:56;101202.59;;;10.89;60.51
77023;BME280;65952;51.440;-2.054;2024-01-30T07:06:21;101202.75;;;10.88;61.00
77023;BME280;65952;51.440;-2.054;2024-01-30T07:08:48;101205.50;;;10.68;61.09
77023;BME280;65952;51.440;-2.054;2024-01-30T07:11:20;101215.50;;;10.76;61.21
77023;BME280;65952;51.440;-2.054;2024-01-30T07:13:50;101217.59;;;10.82;60.90
77023;BME280;65952;51.440;-2.054;2024-01-30T07:16:16;101227.06;;;10.86;60.84
77023;BME280;65952;51.440;-2.054;2024-01-30T07:18:43;101228.19;;;10.84;61.16
77023;BME280;65952;51.440;-2.054;2024-01-30T07:21:08;101226.63;;;10.91;60.81
77023;BME280;65952;51.440;-2.054;2024-01-30T07:23:34;101237.13;;;10.84;60.91
77023;BME280;65952;51.440;-2.054;2024-01-30T07:26:01;101236.97;;;10.86;61.08
77023;BME280;65952;51.440;-2.054;2024-01-30T07:28:26;101233.88;;;10.81;61.33
77023;BME280;65952;51.440;-2.054;2024-01-30T07:30:52;101232.63;;;10.65;61.50
77023;BME280;65952;51.440;-2.054;2024-01-30T07:33:17;101253.28;;;10.65;61.95
77023;BME280;65952;51.440;-2.054;2024-01-30T07:35:43;101249.06;;;10.52;61.72
77023;BME280;65952;51.440;-2.054;2024-01-30T07:38:08;101264.03;;;10.65;61.47
77023;BME280;65952;51.440;-2.054;2024-01-30T07:40:34;101267.25;;;10.68;61.55
77023;BME280;65952;51.440;-2.054;2024-01-30T07:42:59;101266.16;;;10.51;62.10
77023;BME280;65952;51.440;-2.054;2024-01-30T07:45:25;101266.72;;;10.55;61.94
77023;BME280;65952;51.440;-2.054;2024-01-30T07:47:52;101277.34;;;10.47;62.09
77023;BME280;65952;51.440;-2.054;2024-01-30T07:50:18;101280.88;;;10.28;62.95
77023;BME280;65952;51.440;-2.054;2024-01-30T07:52:44;101282.41;;;10.50;62.15
77023;BME280;65952;51.440;-2.054;2024-01-30T07:55:09;101291.72;;;10.65;62.01
77023;BME280;65952;51.440;-2.054;2024-01-30T07:57:35;101290.72;;;10.66;61.79
77023;BME280;65952;51.440;-2.054;2024-01-30T08:00:01;101288.72;;;10.78;61.70
77023;BME280;65952;51.440;-2.054;2024-01-30T08:02:28;101297.63;;;10.79;61.58
77023;BME280;65952;51.440;-2.054;2024-01-30T08:04:53;101302.44;;;10.75;61.89
77023;BME280;65952;51.440;-2.054;2024-01-30T08:07:19;101290.88;;;10.65;61.97
77023;BME280;65952;51.440;-2.054;2024-01-30T08:09:44;101295.25;;;10.76;61.97
77023;BME280;65952;51.440;-2.054;2024-01-30T08:12:10;101292.56;;;10.76;61.69
77023;BME280;65952;51.440;-2.054;2024-01-30T08:14:35;101301.59;;;10.75;61.77
77023;BME280;65952;51.440;-2.054;2024-01-30T08:17:01;101305.84;;;10.67;62.08
77023;BME280;65952;51.440;-2.054;2024-01-30T08:19:26;101312.50;;;10.63;62.37
77023;BME280;65952;51.440;-2.054;2024-01-30T08:21:51;101310.34;;;10.77;61.65
77023;BME280;65952;51.440;-2.054;2024-01-30T08:24:17;101306.97;;;10.75;61.69
77023;BME280;65952;51.440;-2.054;2024-01-30T08:26:42;101312.78;;;10.70;61.88
77023;BME280;65952;51.440;-2.054;2024-01-30T08:29:08;101319.97;;;10.79;61.95
77023;BME280;65952;51.440;-2.054;2024-01-30T08:31:33;101316.84;;;10.84;61.75
77023;BME280;65952;51.440;-2.054;2024-01-30T08:33:59;101324.91;;;10.74;62.10
77023;BME280;65952;51.440;-2.054;2024-01-30T08:36:25;101318.84;;;10.82;61.55
77023;BME280;65952;51.440;-2.054;2024-01-30T08:38:50;101330.91;;;10.58;62.17
77023;BME280;65952;51.440;-2.054;2024-01-30T08:41:16;101332.13;;;10.73;62.19
77023;BME280;65952;51.440;-2.054;2024-01-30T08:43:41;101335.50;;;10.85;61.92
77023;BME280;65952;51.440;-2.054;2024-01-30T08:46:06;101339.16;;;10.94;61.92
77023;BME280;65952;51.440;-2.054;2024-01-30T08:48:32;101343.75;;;10.64;62.21
77023;BME280;65952;51.440;-2.054;2024-01-30T08:50:57;101341.72;;;10.86;61.83
77023;BME280;65952;51.440;-2.054;2024-01-30T08:53:23;101346.38;;;10.94;61.48
77023;BME280;65952;51.440;-2.054;2024-01-30T08:55:48;101355.41;;;10.93;61.36
77023;BME280;65952;51.440;-2.054;2024-01-30T08:58:13;101353.19;;;10.78;61.34
77023;BME280;65952;51.440;-2.054;2024-01-30T09:00:40;101364.44;;;11.11;60.82
77023;BME280;65952;51.440;-2.054;2024-01-30T09:03:06;101368.66;;;11.14;60.35
77023;BME280;65952;51.440;-2.054;2024-01-30T09:05:31;101376.00;;;11.21;60.25
77023;BME280;65952;51.440;-2.054;2024-01-30T09:07:56;101388.88;;;11.18;60.14
77023;BME280;65952;51.440;-2.054;2024-01-30T09:10:22;101388.59;;;11.21;59.93
77023;BME280;65952;51.440;-2.054;2024-01-30T09:12:47;101399.78;;;11.06;60.90
77023;BME280;65952;51.440;-2.054;2024-01-30T09:15:14;101397.81;;;11.18;60.43
77023;BME280;65952;51.440;-2.054;2024-01-30T09:17:40;101409.28;;;11.11;60.40
77023;BME280;65952;51.440;-2.054;2024-01-30T09:20:05;101408.66;;;11.27;59.85
77023;BME280;65952;51.440;-2.054;2024-01-30T09:22:31;101417.34;;;11.11;60.24
77023;BME280;65952;51.440;-2.054;2024-01-30T09:24:57;101417.84;;;11.34;59.63
77023;BME280;65952;51.440;-2.054;2024-01-30T09:27:22;101423.06;;;11.35;59.44
77023;BME280;65952;51.440;-2.054;2024-01-30T09:29:48;101414.59;;;11.30;59.58
77023;BME280;65952;51.440;-2.054;2024-01-30T09:32:13;101423.78;;;11.37;59.49
77023;BME280;65952;51.440;-2.054;2024-01-30T09:34:39;101434.88;;;11.25;59.75
77023;BME280;65952;51.440;-2.054;2024-01-30T09:37:05;101432.00;;;11.36;59.28
77023;BME280;65952;51.440;-2.054;2024-01-30T09:39:30;101437.81;;;11.21;59.69
77023;BME280;65952;51.440;-2.054;2024-01-30T09:42:02;101445.47;;;11.16;59.38
77023;BME280;65952;51.440;-2.054;2024-01-30T09:44:32;101453.25;;;11.19;59.34
77023;BME280;65952;51.440;-2.054;2024-01-30T09:46:59;101459.63;;;11.18;59.36
77023;BME280;65952;51.440;-2.054;2024-01-30T09:49:31;101466.41;;;11.03;60.02
77023;BME280;65952;51.440;-2.054;2024-01-30T09:51:57;101470.66;;;11.15;59.75
77023;BME280;65952;51.440;-2.054;2024-01-30T09:54:23;101478.56;;;11.27;59.13
77023;BME280;65952;51.440;-2.054;2024-01-30T09:56:48;101486.34;;;11.20;59.48
77023;BME280;65952;51.440;-2.054;2024-01-30T09:59:14;101493.03;;;11.06;59.91
77023;BME280;65952;51.440;-2.054;2024-01-30T10:01:40;101505.59;;;11.05;60.20
77023;BME280;65952;51.440;-2.054;2024-01-30T10:04:07;101507.03;;;11.10;60.13
77023;BME280;65952;51.440;-2.054;2024-01-30T10:06:32;101513.94;;;11.22;59.58
77023;BME280;65952;51.440;-2.054;2024-01-30T10:08:57;101515.34;;;11.26;59.42
77023;BME280;65952;51.440;-2.054;2024-01-30T10:11:23;101524.97;;;11.29;59.40
77023;BME280;65952;51.440;-2.054;2024-01-30T10:13:49;101524.25;;;11.27;59.01
77023;BME280;65952;51.440;-2.054;2024-01-30T10:16:14;101526.81;;;11.18;59.12
77023;BME280;65952;51.440;-2.054;2024-01-30T10:18:42;101550.16;;;11.28;59.00
77023;BME280;65952;51.440;-2.054;2024-01-30T10:21:08;101548.03;;;11.31;58.81
77023;BME280;65952;51.440;-2.054;2024-01-30T10:23:35;101545.75;;;11.36;58.65
77023;BME280;65952;51.440;-2.054;2024-01-30T10:26:03;101551.28;;;11.35;58.18
77023;BME280;65952;51.440;-2.054;2024-01-30T10:28:29;101549.59;;;11.34;58.06
77023;BME280;65952;51.440;-2.054;2024-01-30T10:31:02;101562.19;;;11.33;57.89
77023;BME280;65952;51.440;-2.054;2024-01-30T10:33:31;101567.69;;;11.32;57.60
77023;BME280;65952;51.440;-2.054;2024-01-30T10:36:05;101577.31;;;11.34;57.32
77023;BME280;65952;51.440;-2.054;2024-01-30T10:38:32;101583.13;;;11.40;56.92
77023;BME280;65952;51.440;-2.054;2024-01-30T10:41:00;101572.81;;;11.45;56.71
77023;BME280;65952;51.440;-2.054;2024-01-30T10:43:35;101588.19;;;11.23;57.03
77023;BME280;65952;51.440;-2.054;2024-01-30T10:46:18;101595.84;;;11.18;56.82
77023;BME280;65952;51.440;-2.054;2024-01-30T10:48:50;101605.75;;;11.17;56.38
77023;BME280;65952;51.440;-2.054;2024-01-30T10:51:22;101602.19;;;11.17;56.51
77023;BME280;65952;51.440;-2.054;2024-01-30T10:53:49;101605.91;;;11.35;55.96
77023;BME280;65952;51.440;-2.054;2024-01-30T10:56:16;101616.22;;;11.30;56.83
77023;BME280;65952;51.440;-2.054;2024-01-30T10:58:41;101619.75;;;11.41;56.69
77023;BME280;65952;51.440;-2.054;2024-01-30T11:01:07;101618.06;;;11.59;56.49
77023;BME280;65952;51.440;-2.054;2024-01-30T11:03:34;101620.03;;;11.67;56.33
77023;BME280;65952;51.440;-2.054;2024-01-30T11:06:02;101624.31;;;11.60;56.55
77023;BME280;65952;51.440;-2.054;2024-01-30T11:08:27;101628.25;;;11.65;56.54
77023;BME280;65952;51.440;-2.054;2024-01-30T11:10:57;101631.94;;;11.64;56.71
77023;BME280;65952;51.440;-2.054;2024-01-30T11:13:32;101629.25;;;11.64;56.84
77023;BME280;65952;51.440;-2.054;2024-01-30T11:16:02;101630.94;;;11.65;56.80
77023;BME280;65952;51.440;-2.054;2024-01-30T11:18:31;101630.22;;;11.63;56.95
77023;BME280;65952;51.440;-2.054;2024-01-30T11:21:00;101640.56;;;11.58;56.41
77023;BME280;65952;51.440;-2.054;2024-01-30T11:23:28;101646.38;;;11.63;56.34
77023;BME280;65952;51.440;-2.054;2024-01-30T11:25:54;101642.28;;;11.69;56.35
77023;BME280;65952;51.440;-2.054;2024-01-30T11:28:21;101638.03;;;11.66;55.95
77023;BME280;65952;51.440;-2.054;2024-01-30T11:30:47;101634.31;;;11.77;55.51
77023;BME280;65952;51.440;-2.054;2024-01-30T11:33:27;101633.50;;;11.67;56.17
77023;BME280;65952;51.440;-2.054;2024-01-30T11:35:57;101627.94;;;11.78;55.62
77023;BME280;65952;51.440;-2.054;2024-01-30T11:38:23;101628.50;;;11.92;55.48
77023;BME280;65952;51.440;-2.054;2024-01-30T11:40:51;101634.88;;;11.91;55.44
77023;BME280;65952;51.440;-2.054;2024-01-30T11:43:18;101640.00;;;11.84;55.57
77023;BME280;65952;51.440;-2.054;2024-01-30T11:45:44;101645.50;;;11.92;55.58
77023;BME280;65952;51.440;-2.054;2024-01-30T11:48:12;101652.47;;;11.85;55.32
77023;BME280;65952;51.440;-2.054;2024-01-30T11:50:38;101650.06;;;11.62;55.80
77023;BME280;65952;51.440;-2.054;2024-01-30T11:53:04;101646.66;;;11.80;55.59
77023;BME280;65952;51.440;-2.054;2024-01-30T11:55:30;101646.06;;;11.86;55.22
77023;BME280;65952;51.440;-2.054;2024-01-30T11:57:57;101640.16;;;11.82;55.23
77023;BME280;65952;51.440;-2.054;2024-01-30T12:00:22;101646.63;;;11.90;55.41
77023;BME280;65952;51.440;-2.054;2024-01-30T12:02:52;101657.72;;;11.96;54.80
77023;BME280;65952;51.440;-2.054;2024-01-30T12:05:21;101652.06;;;11.80;54.81
77023;BME280;65952;51.440;-2.054;2024-01-30T12:07:46;101662.91;;;11.29;54.12
77023;BME280;65952;51.440;-2.054;2024-01-30T12:10:13;101658.97;;;11.43;53.45
77023;BME280;65952;51.440;-2.054;2024-01-30T12:12:45;101665.66;;;11.68;52.93
77023;BME280;65952;51.440;-2.054;2024-01-30T12:15:11;101668.75;;;11.54;52.99
77023;BME280;65952;51.440;-2.054;2024-01-30T12:17:37;101665.34;;;11.52;52.27
77023;BME280;65952;51.440;-2.054;2024-01-30T12:20:13;101669.75;;;11.73;52.10
77023;BME280;65952;51.440;-2.054;2024-01-30T12:22:43;101676.13;;;11.42;52.29
77023;BME280;65952;51.440;-2.054;2024-01-30T12:25:10;101682.75;;;11.38;52.28
77023;BME280;65952;51.440;-2.054;2024-01-30T12:27:37;101683.91;;;11.55;51.77
77023;BME280;65952;51.440;-2.054;2024-01-30T12:30:09;101681.78;;;11.68;50.56
77023;BME280;65952;51.440;-2.054;2024-01-30T12:32:36;101676.81;;;11.54;50.61
77023;BME280;65952;51.440;-2.054;2024-01-30T12:35:02;101684.47;;;11.49;49.63